Time;durP1;ratioP1;P1;durP2;ratioP2;P2;SDS_P1;SDS_P2;PMS_P1;PMS_P2;Temp;Humidity;BMP_temperature;BMP_pressure;BME280_temperature;BME280_humidity;BME280_pressure;Samples;Min_cycle;Max_cycle;Signal;HPM_P1;HPM_P2
2023/07/01 00:00:28;;;;;;;6.40;3.60;;;;;;;20.09;60.29;98985.81;4440791;32;20485;-89
2023/07/01 00:02:53;;;;;;;5.62;3.83;;;;;;;20.07;60.28;98985.94;4440088;32;24737;-90
2023/07/01 00:06:09;;;;;;;4.85;3.67;;;;;;;20.00;60.29;98992.72;4428347;32;20158;-93
2023/07/01 00:08:34;;;;;;;6.32;4.00;;;;;;;19.91;60.27;98989.03;4449562;32;20109;-91
2023/07/01 00:11:03;;;;;;;4.20;3.75;;;;;;;19.68;60.25;98992.72;4428008;32;20112;-92
2023/07/01 00:13:28;;;;;;;5.47;3.85;;;;;;;19.93;60.28;98980.97;4441403;32;20154;-93
2023/07/01 00:15:55;;;;;;;13.45;4.37;;;;;;;19.98;60.28;98978.78;4428242;32;20112;-92
2023/07/01 00:18:21;;;;;;;5.25;4.07;;;;;;;19.94;60.28;98980.00;4428203;32;20139;-92
2023/07/01 00:20:47;;;;;;;8.05;3.90;;;;;;;19.71;60.27;98983.72;4423166;32;20161;-91
2023/07/01 00:23:12;;;;;;;6.78;4.28;;;;;;;19.62;60.25;98990.56;4436512;32;20105;-91
2023/07/01 00:25:40;;;;;;;8.23;4.15;;;;;;;19.68;60.26;98987.44;4410327;32;20156;-93
2023/07/01 00:28:06;;;;;;;10.00;4.25;;;;;;;19.58;60.26;98983.84;4423274;32;20160;-92
2023/07/01 00:30:31;;;;;;;9.75;4.28;;;;;;;19.73;60.27;98987.06;4423347;32;20101;-92
2023/07/01 00:32:57;;;;;;;5.03;3.35;;;;;;;19.76;60.26;98978.88;4410704;32;20113;-92
2023/07/01 00:35:22;;;;;;;4.93;4.18;;;;;;;19.48;60.25;98978.47;4411498;32;20117;-92
2023/07/01 00:37:47;;;;;;;6.60;4.05;;;;;;;19.60;60.26;98979.28;4443199;32;20097;-91
2023/07/01 00:40:13;;;;;;;4.50;3.95;;;;;;;19.58;60.26;98976.78;4432157;32;20109;-92
2023/07/01 00:42:38;;;;;;;6.15;4.72;;;;;;;19.50;60.25;98976.53;4423864;32;20089;-92
2023/07/01 00:45:04;;;;;;;9.15;4.78;;;;;;;19.35;60.25;98977.75;4409267;32;20127;-92
2023/07/01 00:47:30;;;;;;;6.60;4.25;;;;;;;19.36;60.24;98973.31;4422244;32;20490;-92
2023/07/01 00:49:56;;;;;;;6.50;4.22;;;;;;;19.31;60.25;98973.69;4424862;32;20177;-93
2023/07/01 00:52:21;;;;;;;6.55;4.20;;;;;;;19.40;60.25;98972.97;4436895;32;20115;-92
2023/07/01 00:54:47;;;;;;;5.05;4.30;;;;;;;19.31;60.25;98966.63;4411926;32;20110;-93
2023/07/01 00:57:12;;;;;;;6.65;5.05;;;;;;;19.29;60.23;98962.41;4424344;32;20153;-93
2023/07/01 00:59:38;;;;;;;5.03;3.72;;;;;;;19.34;60.25;98962.88;4424610;32;20149;-93
2023/07/01 01:02:06;;;;;;;6.80;4.25;;;;;;;19.45;60.25;98957.59;4437347;32;20102;-92
2023/07/01 01:05:10;;;;;;;4.82;3.83;;;;;;;19.30;60.24;98959.66;4424670;32;20105;-94
2023/07/01 01:07:52;;;;;;;5.95;4.62;;;;;;;19.36;60.24;98954.84;4428244;32;20097;-95
2023/07/01 01:10:23;;;;;;;5.00;4.18;;;;;;;19.17;60.23;98953.72;4425388;32;20094;-96
2023/07/01 01:13:05;;;;;;;5.85;4.30;;;;;;;19.25;60.24;98946.00;4425386;32;20101;-93
2023/07/01 01:15:30;;;;;;;8.38;4.22;;;;;;;19.14;60.23;98942.53;4424178;32;20336;-93
2023/07/01 01:17:57;;;;;;;5.00;3.92;;;;;;;19.22;60.25;98940.97;4424487;32;20117;-91
2023/07/01 01:20:22;;;;;;;5.25;3.83;;;;;;;19.06;60.23;98935.25;4432307;32;20487;-92
2023/07/01 01:23:16;;;;;;;8.63;4.28;;;;;;;19.12;60.23;98933.91;4426198;32;20105;-92
2023/07/01 01:25:43;;;;;;;5.68;4.20;;;;;;;19.12;60.23;98934.75;4431000;32;20429;-94
2023/07/01 01:28:16;;;;;;;6.90;4.57;;;;;;;19.11;60.23;98933.06;4428067;32;20125;-94
2023/07/01 01:30:42;;;;;;;5.97;4.93;;;;;;;19.19;60.24;98935.94;4439593;32;20094;-94
2023/07/01 01:33:07;;;;;;;7.03;4.35;;;;;;;19.10;60.23;98936.66;4413955;32;20097;-93
2023/07/01 01:35:33;;;;;;;6.32;4.75;;;;;;;18.83;60.22;98942.34;4426451;32;20172;-92
2023/07/01 01:38:26;;;;;;;5.87;4.53;;;;;;;18.80;60.21;98933.84;4414936;32;20110;-95
2023/07/01 01:41:39;;;;;;;;;;;;;;;;;;;;;
2023/07/01 01:45:10;;;;;;;;;;;;;;;;;;;;;
2023/07/01 01:55:26;;;;;;;;;;;;;;;;;;;;;
2023/07/01 01:57:52;;;;;;;8.02;4.82;;;;;;;18.72;60.21;98942.34;4423693;32;37765;-92
2023/07/01 02:00:18;;;;;;;6.68;5.00;;;;;;;18.50;60.20;98931.78;4427558;32;20105;-91
2023/07/01 02:02:44;;;;;;;7.93;5.18;;;;;;;18.47;60.20;98938.12;4428978;32;20114;-92
2023/07/01 02:05:09;;;;;;;6.07;4.85;;;;;;;18.48;60.20;98934.53;4422848;32;20118;-92
2023/07/01 02:07:35;;;;;;;5.55;4.87;;;;;;;18.54;60.19;98933.22;4423486;32;20113;-90
2023/07/01 02:10:00;;;;;;;6.97;5.68;;;;;;;18.49;60.20;98928.31;4439761;32;20155;-91
2023/07/01 02:12:26;;;;;;;6.12;5.32;;;;;;;18.50;60.20;98929.97;4413237;32;20109;-92
2023/07/01 02:14:51;;;;;;;6.47;4.97;;;;;;;18.63;60.21;98925.44;4426144;32;20120;-91
2023/07/01 02:17:17;;;;;;;6.15;5.10;;;;;;;18.63;60.21;98927.25;4426201;32;20353;-92
2023/07/01 02:19:47;;;;;;;11.12;5.68;;;;;;;18.73;60.21;98930.84;4423708;32;20117;-93
2023/07/01 02:22:13;;;;;;;6.07;5.03;;;;;;;18.46;60.19;98932.97;4411279;32;20135;-91
2023/07/01 02:24:38;;;;;;;5.80;5.22;;;;;;;18.57;60.20;98933.81;4423524;32;20115;-91
2023/07/01 02:27:04;;;;;;;6.68;4.90;;;;;;;18.59;60.20;98931.88;4411590;32;20132;-92
2023/07/01 02:29:32;;;;;;;7.85;5.47;;;;;;;18.49;60.20;98932.72;4423641;32;20125;-92
2023/07/01 02:31:57;;;;;;;5.87;5.28;;;;;;;18.47;60.20;98932.84;4424271;32;20175;-92
2023/07/01 02:34:27;;;;;;;6.97;5.57;;;;;;;18.38;60.20;98937.00;4411310;32;20098;-91
2023/07/01 02:36:57;;;;;;;8.02;5.30;;;;;;;18.46;60.19;98935.59;4423712;32;20108;-92
2023/07/01 02:39:23;;;;;;;;;;;;;;;18.39;60.20;98924.69;4424320;32;20082;-93
2023/07/01 02:41:54;;;;;;;8.77;5.12;;;;;;;18.56;60.20;98928.66;4436526;32;20012;-92
2023/07/01 02:44:19;;;;;;;8.45;4.72;;;;;;;18.35;60.19;98925.87;4412455;32;20108;-93
2023/07/01 02:46:48;;;;;;;5.97;5.00;;;;;;;18.39;60.19;98927.31;4412841;32;20090;-92
2023/07/01 02:49:14;;;;;;;8.20;5.37;;;;;;;18.35;60.19;98926.72;4423980;32;20128;-92
2023/07/01 02:51:55;;;;;;;;;;;;;;;;;;;;;
2023/07/01 02:54:33;;;;;;;6.32;5.57;;;;;;;18.23;60.19;98930.31;4423401;32;35693;-93
2023/07/01 02:57:10;;;;;;;;;;;;;;;;;;;;;
2023/07/01 02:59:48;;;;;;;6.05;5.22;;;;;;;18.36;60.19;98931.03;4423809;32;35373;-94
2023/07/01 03:02:41;;;;;;;6.07;5.20;;;;;;;18.26;60.19;98932.69;4424169;32;20177;-93
2023/07/01 03:05:09;;;;;;;7.12;5.50;;;;;;;18.30;60.18;98939.41;4426035;32;20090;-93
2023/07/01 03:07:41;;;;;;;8.70;5.72;;;;;;;18.19;60.18;98931.47;4423749;32;20124;-92
2023/07/01 03:10:07;;;;;;;6.68;5.50;;;;;;;18.16;60.18;98930.88;4423316;32;20106;-92
2023/07/01 03:12:32;;;;;;;9.20;5.62;;;;;;;18.14;60.17;98933.63;4423762;32;20123;-92
2023/07/01 03:14:58;;;;;;;9.18;6.07;;;;;;;18.31;60.19;98935.81;4422741;32;20344;-92
2023/07/01 03:17:24;;;;;;;6.70;6.00;;;;;;;18.27;60.19;98934.37;4423642;32;20121;-92
2023/07/01 03:19:50;;;;;;;6.90;5.53;;;;;;;18.17;60.19;98933.37;4428520;32;20109;-91
2023/07/01 03:22:16;;;;;;;7.32;5.70;;;;;;;18.23;60.19;98921.56;4413398;32;20201;-92
2023/07/01 03:24:41;;;;;;;8.30;5.45;;;;;;;18.31;60.19;98927.06;4427141;32;20107;-91
2023/07/01 03:27:07;;;;;;;7.05;5.80;;;;;;;18.36;60.18;98924.91;4426619;32;20112;-92
2023/07/01 03:29:33;;;;;;;6.95;5.47;;;;;;;18.33;60.19;98922.53;4453403;32;20135;-92
2023/07/01 03:31:59;;;;;;;8.23;5.95;;;;;;;18.40;60.19;98921.91;4433314;32;20089;-92
2023/07/01 03:34:29;;;;;;;7.53;6.03;;;;;;;18.62;60.21;98915.00;4453161;32;20127;-93
2023/07/01 03:36:54;;;;;;;;;;;;;;;18.64;60.21;98927.13;4442817;32;20145;-92
2023/07/01 03:39:19;;;;;;;9.05;6.50;;;;;;;18.83;60.21;98920.41;4438436;32;19993;-92
2023/07/01 03:41:46;;;;;;;8.13;5.82;;;;;;;18.90;60.21;98929.50;4413406;32;20101;-92
2023/07/01 03:44:12;;;;;;;6.90;5.57;;;;;;;19.08;60.23;98919.28;4428297;32;20151;-92
2023/07/01 03:46:38;;;;;;;7.40;6.03;;;;;;;19.14;60.23;98921.44;4425524;32;20101;-93
2023/07/01 03:49:03;;;;;;;8.65;5.62;;;;;;;19.20;60.23;98921.78;4425600;32;20106;-90
2023/07/01 03:51:29;;;;;;;10.70;5.82;;;;;;;19.41;60.24;98915.75;4424988;32;20478;-90
2023/07/01 03:53:55;;;;;;;8.55;5.53;;;;;;;19.33;60.24;98927.75;4438108;32;20093;-90
2023/07/01 03:56:21;;;;;;;7.72;5.53;;;;;;;19.48;60.25;98917.75;4426172;32;20410;-91
2023/07/01 03:58:46;;;;;;;7.53;5.72;;;;;;;19.67;60.26;98911.84;4412939;32;20109;-92
2023/07/01 04:01:16;;;;;;;8.30;5.62;;;;;;;19.70;60.26;98908.94;4412243;32;20177;-91
2023/07/01 04:03:41;;;;;;;6.83;5.30;;;;;;;19.80;60.26;98915.12;4428009;32;20850;-92
2023/07/01 04:06:07;;;;;;;7.93;5.35;;;;;;;20.03;60.28;98909.72;4425513;32;20094;-92
2023/07/01 04:08:33;;;;;;;6.30;5.30;;;;;;;20.00;60.27;98904.69;4437891;32;20133;-91
2023/07/01 04:11:00;;;;;;;7.22;4.68;;;;;;;20.13;60.28;98906.19;4411930;32;20536;-92
2023/07/01 04:13:27;;;;;;;5.93;5.20;;;;;;;20.32;60.29;98900.16;4438186;32;20140;-92
2023/07/01 04:15:52;;;;;;;6.30;5.45;;;;;;;20.45;60.29;98895.53;4424989;32;20532;-91
2023/07/01 04:18:18;;;;;;;5.82;5.30;;;;;;;20.61;60.30;98899.50;4412654;32;20117;-93
2023/07/01 04:20:43;;;;;;;7.57;5.70;;;;;;;20.78;60.31;98890.91;4422258;32;20485;-91
2023/07/01 04:23:09;;;;;;;6.68;4.95;;;;;;;20.79;60.31;98893.41;4422756;32;20102;-91
2023/07/01 04:25:34;;;;;;;7.87;5.68;;;;;;;20.93;60.32;98891.38;4424537;32;20370;-91
2023/07/01 04:28:01;;;;;;;7.03;5.50;;;;;;;21.01;60.33;98894.19;4411169;32;20193;-92
2023/07/01 04:30:28;;;;;;;6.90;5.18;;;;;;;21.19;60.34;98887.25;4424115;32;20117;-91
2023/07/01 04:32:54;;;;;;;6.65;5.40;;;;;;;21.38;60.34;98886.47;4424206;32;20090;-91
2023/07/01 04:35:19;;;;;;;7.87;5.75;;;;;;;21.64;60.36;98879.66;4411371;32;20111;-89
2023/07/01 04:37:45;;;;;;;6.72;5.12;;;;;;;21.62;60.35;98881.59;4425304;32;20109;-90
2023/07/01 04:40:11;;;;;;;6.03;5.15;;;;;;;21.65;60.36;98885.78;4423681;32;20173;-91
2023/07/01 04:42:44;;;;;;;11.82;5.22;;;;;;;21.80;60.37;98891.50;4424112;32;20150;-89
2023/07/01 04:45:09;;;;;;;6.72;5.40;;;;;;;21.78;60.36;98890.81;4436886;32;20109;-89
2023/07/01 04:47:35;;;;;;;11.35;5.65;;;;;;;21.91;60.37;98892.16;4445190;32;20110;-90
2023/07/01 04:50:00;;;;;;;7.53;6.03;;;;;;;22.03;60.38;98887.56;4427595;32;20139;-91
2023/07/01 04:52:26;;;;;;;6.55;5.65;;;;;;;22.18;60.39;98891.44;4424825;32;20165;-91
2023/07/01 04:54:51;;;;;;;8.90;5.12;;;;;;;22.50;60.41;98885.78;4412029;32;20147;-91
2023/07/01 04:57:17;;;;;;;11.63;5.57;;;;;;;22.66;60.41;98887.78;4425631;32;20119;-91
2023/07/01 04:59:42;;;;;;;6.55;5.30;;;;;;;22.61;60.41;98879.44;4433717;32;20073;-90
2023/07/01 05:02:08;;;;;;;6.65;5.45;;;;;;;22.94;60.42;98878.88;4427950;32;20398;-90
2023/07/01 05:04:33;;;;;;;7.72;5.25;;;;;;;23.02;60.43;98877.31;4425145;32;20089;-90
2023/07/01 05:06:59;;;;;;;7.75;5.45;;;;;;;23.09;60.43;98875.72;4436575;32;20137;-90
2023/07/01 05:09:24;;;;;;;8.40;5.82;;;;;;;23.17;60.43;98881.09;4424018;32;20109;-91
2023/07/01 05:11:49;;;;;;;6.75;5.60;;;;;;;23.48;60.45;98879.78;4424063;32;20180;-91
2023/07/01 05:14:15;;;;;;;9.05;5.47;;;;;;;23.53;60.45;98876.66;4415633;32;20918;-90
2023/07/01 05:16:40;;;;;;;7.72;5.45;;;;;;;23.55;60.46;98875.50;4426141;32;20092;-91
2023/07/01 05:19:06;;;;;;;11.27;5.70;;;;;;;23.64;60.46;98870.28;4443468;32;20149;-92
2023/07/01 05:21:32;;;;;;;9.55;4.97;;;;;;;23.63;60.46;98871.28;4429063;32;20139;-91
2023/07/01 05:23:58;;;;;;;7.78;5.43;;;;;;;23.84;60.47;98877.09;4429335;32;20134;-92
2023/07/01 05:26:23;;;;;;;6.87;5.15;;;;;;;23.86;60.47;98869.81;4428352;32;20865;-91
2023/07/01 05:28:49;;;;;;;6.12;5.45;;;;;;;24.04;60.48;98881.25;4428658;32;20096;-91
2023/07/01 05:31:15;;;;;;;7.90;5.78;;;;;;;24.40;60.50;98879.34;4441482;32;20089;-91
2023/07/01 05:33:44;;;;;;;8.38;5.15;;;;;;;24.56;60.50;98889.22;4429162;32;20093;-90
2023/07/01 05:36:10;;;;;;;8.45;5.55;;;;;;;24.61;60.51;98878.13;4441809;32;20137;-91
2023/07/01 05:38:35;;;;;;;10.55;5.75;;;;;;;24.71;60.52;98879.66;4431470;32;20487;-91
2023/07/01 05:41:01;;;;;;;12.68;5.68;;;;;;;24.66;60.51;98875.81;4456152;32;20137;-91
2023/07/01 05:43:27;;;;;;;7.47;5.05;;;;;;;24.83;60.53;98888.19;4442063;32;20118;-92
2023/07/01 05:45:57;;;;;;;7.80;5.35;;;;;;;24.78;60.52;98888.66;4434807;32;20114;-91
2023/07/01 05:48:22;;;;;;;6.57;5.35;;;;;;;24.80;60.52;98889.34;4455076;32;20135;-93
2023/07/01 05:50:48;;;;;;;7.47;5.45;;;;;;;24.87;60.52;98883.38;4429157;32;20149;-91
2023/07/01 05:53:13;;;;;;;7.22;5.43;;;;;;;25.09;60.54;98880.16;4429504;32;20081;-92
2023/07/01 05:55:39;;;;;;;7.10;5.10;;;;;;;25.14;60.54;98880.50;4456122;32;20380;-93
2023/07/01 05:58:04;;;;;;;6.68;5.05;;;;;;;25.19;60.54;98877.34;4430473;32;20093;-92
2023/07/01 06:00:30;;;;;;;8.23;5.57;;;;;;;25.32;60.55;98872.41;4442762;32;20232;-91
2023/07/01 06:02:56;;;;;;;9.45;5.25;;;;;;;25.33;60.55;98888.22;4429573;32;20119;-92
2023/07/01 06:05:21;;;;;;;10.60;5.00;;;;;;;25.32;60.55;98886.53;4442304;32;20185;-91
2023/07/01 06:07:47;;;;;;;6.07;4.80;;;;;;;25.61;60.56;98875.41;4429396;32;20465;-92
2023/07/01 06:10:13;;;;;;;6.65;4.68;;;;;;;25.69;60.56;98878.09;4429720;32;20137;-93
2023/07/01 06:12:39;;;;;;;5.93;4.53;;;;;;;25.74;60.57;98888.25;4430340;32;20096;-93
2023/07/01 06:15:05;;;;;;;6.03;4.45;;;;;;;25.81;60.58;98880.44;4429439;32;20094;-92
2023/07/01 06:17:30;;;;;;;6.68;5.12;;;;;;;25.98;60.58;98885.59;4442286;32;20109;-93
2023/07/01 06:19:56;;;;;;;5.62;4.65;;;;;;;26.14;60.59;98878.56;4426941;32;20172;-92
2023/07/01 06:22:21;;;;;;;8.07;5.18;;;;;;;26.33;60.60;98878.19;4412688;32;20138;-91
2023/07/01 06:24:48;;;;;;;7.45;4.65;;;;;;;26.34;60.60;98884.38;4413537;32;20153;-92
2023/07/01 06:27:14;;;;;;;7.20;4.78;;;;;;;26.49;60.61;98880.84;4436774;32;20119;-92
2023/07/01 06:29:39;;;;;;;9.40;5.15;;;;;;;26.68;60.62;98884.94;4426009;32;20390;-92
2023/07/01 06:32:07;;;;;;;10.40;4.80;;;;;;;26.88;60.63;98888.03;4439504;32;20123;-93
2023/07/01 06:34:32;;;;;;;6.22;4.22;;;;;;;27.10;60.63;98886.47;4428046;32;20485;-92
2023/07/01 06:36:58;;;;;;;5.55;4.35;;;;;;;27.17;60.64;98885.56;4411439;32;20117;-92
2023/07/01 06:39:23;;;;;;;6.72;4.62;;;;;;;27.36;60.65;98891.47;4427176;32;20117;-93
2023/07/01 06:41:48;;;;;;;7.50;5.00;;;;;;;27.50;60.67;98880.87;4427870;32;20483;-93
2023/07/01 06:44:14;;;;;;;5.84;4.32;;;;;;;27.75;60.68;98886.88;4423551;32;20113;-93
2023/07/01 06:46:39;;;;;;;6.32;4.97;;;;;;;27.93;60.69;98888.41;4423481;32;20113;-93
2023/07/01 06:49:05;;;;;;;11.48;5.05;;;;;;;27.99;60.69;98874.31;4422483;32;20097;-93
2023/07/01 06:51:30;;;;;;;6.30;4.50;;;;;;;28.17;60.70;98874.81;4423265;32;20085;-93
2023/07/01 06:53:56;;;;;;;5.28;4.50;;;;;;;28.47;60.71;98867.66;4423857;32;20168;-93
2023/07/01 06:56:21;;;;;;;8.13;4.90;;;;;;;28.56;60.72;98863.84;4423487;32;20548;-91
2023/07/01 06:58:47;;;;;;;5.57;4.35;;;;;;;28.81;60.73;98861.69;4423327;32;20133;-93
2023/07/01 07:01:12;;;;;;;8.75;4.80;;;;;;;28.95;60.73;98866.25;4418618;32;20085;-92
2023/07/01 07:03:39;;;;;;;8.40;5.18;;;;;;;29.00;60.75;98850.44;4437761;32;20078;-92
2023/07/01 07:06:06;;;;;;;7.22;4.62;;;;;;;29.22;60.75;98853.13;4424529;32;20101;-92
2023/07/01 07:08:31;;;;;;;5.35;4.15;;;;;;;29.23;60.75;98860.16;4423741;32;20120;-93
2023/07/01 07:10:57;;;;;;;5.90;4.60;;;;;;;29.25;60.76;98855.44;4410581;32;20125;-93
2023/07/01 07:13:22;;;;;;;7.07;4.15;;;;;;;29.17;60.74;98852.88;4423203;32;20128;-93
2023/07/01 07:15:48;;;;;;;6.25;4.18;;;;;;;29.39;60.76;98848.38;4423304;32;20395;-93
2023/07/01 07:18:14;;;;;;;5.68;4.07;;;;;;;29.54;60.77;98851.81;4423470;32;20151;-94
2023/07/01 07:20:39;;;;;;;5.47;4.30;;;;;;;29.68;60.77;98847.44;4433770;32;20093;-94
2023/07/01 07:23:06;;;;;;;11.23;5.22;;;;;;;29.81;60.79;98844.84;4426330;32;20113;-93
2023/07/01 07:25:35;;;;;;;9.43;4.20;;;;;;;29.84;60.79;98844.47;4427171;32;20105;-94
2023/07/01 07:28:03;;;;;;;6.78;4.50;;;;;;;30.03;60.79;98835.75;4415920;32;20069;-94
2023/07/01 07:30:29;;;;;;;4.82;4.07;;;;;;;29.87;60.78;98838.72;4430157;32;20089;-94
2023/07/01 07:32:57;;;;;;;6.18;4.07;;;;;;;29.99;60.79;98836.31;4422535;32;20105;-94
2023/07/01 07:35:22;;;;;;;6.37;4.18;;;;;;;30.13;60.80;98832.72;4415437;32;20104;-95
2023/07/01 07:37:49;;;;;;;7.57;4.55;;;;;;;30.12;60.80;98834.59;4426858;32;20198;-95
2023/07/01 07:40:15;;;;;;;6.35;4.40;;;;;;;30.00;60.79;98836.09;4452923;32;20106;-95
2023/07/01 07:42:43;;;;;;;8.02;4.45;;;;;;;30.10;60.80;98828.59;4414350;32;20465;-95
2023/07/01 07:45:09;;;;;;;6.43;4.80;;;;;;;30.54;60.82;98830.91;4414660;32;20081;-96
2023/07/01 07:47:34;;;;;;;5.80;4.57;;;;;;;30.36;60.81;98825.22;4427396;32;20468;-96
2023/07/01 07:50:01;;;;;;;5.82;4.00;;;;;;;30.35;60.81;98828.13;4416149;32;20108;-96
2023/07/01 07:58:28;;;;;;;6.28;4.37;;;;;;;31.07;60.85;98817.69;4486382;27;20292;-89
2023/07/01 08:00:54;;;;;;;8.50;4.00;;;;;;;31.10;60.85;98816.44;4409444;32;20089;-90
2023/07/01 08:03:20;;;;;;;6.75;4.85;;;;;;;31.44;60.86;98810.94;4423554;32;20145;-89
2023/07/01 08:05:45;;;;;;;6.80;5.28;;;;;;;31.42;60.87;98807.62;4422539;32;20102;-89
2023/07/01 08:08:11;;;;;;;6.80;4.37;;;;;;;31.42;60.87;98810.31;4422425;32;20123;-89
2023/07/01 08:10:36;;;;;;;5.43;4.87;;;;;;;31.43;60.87;98803.91;4422605;32;20177;-90
2023/07/01 08:13:02;;;;;;;7.68;5.68;;;;;;;31.56;60.87;98802.28;4409960;32;20486;-89
2023/07/01 08:15:27;;;;;;;8.80;5.53;;;;;;;31.65;60.88;98801.84;4421893;32;20352;-90
2023/07/01 08:17:53;;;;;;;10.52;6.10;;;;;;;31.72;60.88;98791.97;4422458;32;20066;-89
2023/07/01 08:20:18;;;;;;;8.50;5.82;;;;;;;31.88;60.89;98792.53;4422170;32;20439;-90
2023/07/01 08:22:44;;;;;;;9.68;6.35;;;;;;;32.10;60.89;98787.75;4422319;32;20462;-89
2023/07/01 08:25:09;;;;;;;8.40;5.43;;;;;;;31.93;60.88;98790.88;4423395;32;20106;-88
2023/07/01 08:27:34;;;;;;;6.40;5.80;;;;;;;31.98;60.89;98792.97;4422160;32;20137;-88
2023/07/01 08:30:00;;;;;;;9.13;5.00;;;;;;;32.25;60.90;98782.94;4422044;32;20147;-87
2023/07/01 08:32:25;;;;;;;6.62;4.90;;;;;;;32.42;60.91;98783.34;4423134;32;20141;-87
2023/07/01 08:34:51;;;;;;;5.62;5.05;;;;;;;32.38;60.91;98777.53;4409258;32;20434;-87
2023/07/01 08:37:16;;;;;;;7.53;5.12;;;;;;;32.75;60.92;98777.81;4422018;32;20481;-87
2023/07/01 08:39:42;;;;;;;6.07;4.85;;;;;;;32.77;60.94;98773.84;4421844;32;20180;-87
2023/07/01 08:42:09;;;;;;;8.73;4.47;;;;;;;33.03;60.95;98775.59;4409227;32;20470;-87
2023/07/01 08:44:34;;;;;;;5.30;4.80;;;;;;;33.31;60.95;98767.09;4409307;32;20086;-88
2023/07/01 08:47:00;;;;;;;7.10;4.45;;;;;;;33.39;60.95;98768.75;4409318;32;20175;-87
2023/07/01 08:49:26;;;;;;;9.23;5.22;;;;;;;33.46;60.96;98772.19;4409169;32;20102;-87
2023/07/01 08:52:21;;;;;;;6.50;4.37;;;;;;;33.70;60.97;98773.25;4396340;32;20446;-88
2023/07/01 08:54:47;;;;;;;5.45;4.47;;;;;;;33.76;60.98;98767.78;4405665;32;20093;-87
2023/07/01 08:57:12;;;;;;;7.47;4.90;;;;;;;33.89;60.99;98766.87;4409526;32;20108;-88
2023/07/01 08:59:38;;;;;;;4.90;4.40;;;;;;;33.90;60.99;98768.50;4422798;32;26858;-88
2023/07/01 09:02:03;;;;;;;6.43;4.25;;;;;;;33.90;60.99;98775.78;4397341;32;20483;-88
2023/07/01 09:04:29;;;;;;;7.87;4.55;;;;;;;34.07;61.00;98774.13;4424692;32;20363;-88
2023/07/01 09:06:54;;;;;;;7.15;5.03;;;;;;;34.29;61.00;98766.41;4432175;32;20077;-89
2023/07/01 09:09:19;;;;;;;5.12;4.25;;;;;;;34.52;61.01;98774.69;4418416;32;20090;-88
2023/07/01 09:11:47;;;;;;;6.18;4.72;;;;;;;34.57;61.02;98765.91;4396858;32;20183;-88
2023/07/01 09:14:13;;;;;;;8.20;5.37;;;;;;;34.66;61.02;98768.06;4423888;32;20476;-88
2023/07/01 09:16:39;;;;;;;6.50;5.00;;;;;;;34.62;61.03;98768.75;4410932;32;20090;-88
2023/07/01 09:19:07;;;;;;;4.82;4.18;;;;;;;34.83;61.03;98770.12;4425017;32;20082;-88
2023/07/01 09:21:33;;;;;;;7.93;4.77;;;;;;;35.04;61.04;98767.78;4411013;32;20522;-88
2023/07/01 09:24:02;;;;;;;4.90;4.40;;;;;;;35.17;61.04;98760.50;4423835;32;20151;-88
2023/07/01 09:26:30;;;;;;;4.70;4.03;;;;;;;35.28;61.06;98763.25;4411136;32;20077;-88
2023/07/01 09:28:57;;;;;;;4.97;4.50;;;;;;;35.27;61.06;98763.47;4423994;32;20141;-88
2023/07/01 09:31:22;;;;;;;5.30;4.40;;;;;;;35.25;61.06;98763.69;4411201;32;20127;-88
2023/07/01 09:33:56;;;;;;;5.95;5.03;;;;;;;35.23;61.05;98759.56;4423952;32;20101;-89
2023/07/01 09:36:28;;;;;;;5.50;4.10;;;;;;;35.29;61.06;98759.47;4424993;32;20073;-88
2023/07/01 09:38:54;;;;;;;7.72;4.70;;;;;;;35.40;61.06;98757.06;4399152;32;20116;-88
2023/07/01 09:41:23;;;;;;;6.95;4.93;;;;;;;35.61;61.07;98757.31;4424914;32;20502;-88
2023/07/01 09:43:48;;;;;;;4.90;4.50;;;;;;;35.74;61.08;98758.97;4423766;32;20106;-88
2023/07/01 09:46:14;;;;;;;9.82;5.25;;;;;;;35.80;61.08;98763.44;4424988;32;20196;-89
2023/07/01 09:48:53;;;;;;;4.87;4.47;;;;;;;35.98;61.10;98759.81;4423723;32;20073;-89
2023/07/01 09:51:19;;;;;;;5.20;4.40;;;;;;;36.06;61.10;98755.91;4423749;32;20374;-90
2023/07/01 09:53:45;;;;;;;5.85;4.18;;;;;;;36.06;61.10;98747.78;4424945;32;20116;-89
2023/07/01 09:56:11;;;;;;;5.80;3.90;;;;;;;36.06;61.10;98748.59;4423611;32;20089;-89
2023/07/01 09:58:36;;;;;;;5.72;4.37;;;;;;;36.04;61.09;98741.78;4410700;32;20086;-89
2023/07/01 10:01:01;;;;;;;5.50;4.00;;;;;;;36.10;61.10;98735.41;4410408;32;20152;-89
2023/07/01 10:03:27;;;;;;;4.95;3.95;;;;;;;36.00;61.09;98740.62;4410250;32;24457;-89
2023/07/01 10:05:52;;;;;;;5.12;4.72;;;;;;;36.05;61.10;98743.41;4410711;32;20146;-89
2023/07/01 10:08:18;;;;;;;6.12;4.57;;;;;;;35.95;61.09;98744.81;4423612;32;20398;-89
2023/07/01 10:10:44;;;;;;;5.40;4.75;;;;;;;36.09;61.10;98741.88;4423557;32;20102;-89
2023/07/01 10:13:09;;;;;;;5.12;4.30;;;;;;;36.26;61.11;98737.38;4410957;32;20459;-89
2023/07/01 10:15:35;;;;;;;6.37;4.57;;;;;;;36.05;61.09;98736.13;4410247;32;20137;-89
2023/07/01 10:18:00;;;;;;;5.78;4.35;;;;;;;36.21;61.10;98729.97;4423581;32;20093;-88
2023/07/01 10:20:30;;;;;;;4.72;4.10;;;;;;;36.40;61.11;98735.22;4423382;32;20409;-89
2023/07/01 10:22:59;;;;;;;5.18;4.07;;;;;;;36.34;61.11;98734.31;4424915;32;20182;-89
2023/07/01 10:25:28;;;;;;;4.70;4.30;;;;;;;36.41;61.12;98728.75;4423443;32;20082;-89
2023/07/01 10:27:59;;;;;;;4.70;4.12;;;;;;;36.48;61.12;98735.69;4423591;32;20120;-89
2023/07/01 10:30:24;;;;;;;6.65;3.97;;;;;;;36.58;61.12;98740.47;4424577;32;20094;-89
2023/07/01 10:32:50;;;;;;;5.03;4.03;;;;;;;36.50;61.12;98733.56;4423359;32;20188;-89
2023/07/01 10:35:15;;;;;;;5.75;3.92;;;;;;;36.49;61.12;98736.50;4423338;32;20130;-89
2023/07/01 10:37:41;;;;;;;4.80;4.30;;;;;;;36.43;61.11;98732.84;4424604;32;20459;-89
2023/07/01 10:40:29;;;;;;;7.22;4.40;;;;;;;36.58;61.12;98730.44;4397883;32;20463;-89
2023/07/01 10:43:18;;;;;;;8.73;4.18;;;;;;;36.68;61.13;98726.31;4414864;32;20470;-89
2023/07/01 10:45:43;;;;;;;6.78;4.05;;;;;;;36.69;61.13;98731.47;4413028;32;20567;-89
2023/07/01 10:48:13;;;;;;;6.85;4.35;;;;;;;36.65;61.13;98722.16;4410490;32;20142;-89
2023/07/01 10:51:00;;;;;;;5.30;4.12;;;;;;;36.62;61.13;98722.66;4412341;32;20110;-89
2023/07/01 10:53:26;;;;;;;5.30;3.97;;;;;;;36.70;61.13;98725.00;4432706;32;20101;-89
2023/07/01 10:55:51;;;;;;;6.60;4.50;;;;;;;36.71;61.13;98723.94;4424263;32;20439;-89
2023/07/01 10:58:24;;;;;;;5.90;4.05;;;;;;;36.66;61.13;98728.41;4410505;32;20138;-90
2023/07/01 11:00:56;;;;;;;4.47;4.07;;;;;;;36.47;61.12;98735.94;4423281;32;20152;-89
2023/07/01 11:03:37;;;;;;;4.85;3.97;;;;;;;36.24;61.11;98734.91;4423289;32;20105;-89
2023/07/01 11:06:12;;;;;;;6.82;3.85;;;;;;;36.04;61.09;98742.59;4423053;32;20094;-89
2023/07/01 11:08:45;;;;;;;8.00;4.80;;;;;;;35.94;61.09;98737.75;4410836;32;20160;-89
2023/07/01 11:11:10;;;;;;;4.57;4.18;;;;;;;35.99;61.10;98737.06;4423071;32;20312;-89
2023/07/01 11:13:36;;;;;;;3.83;3.50;;;;;;;36.07;61.10;98733.16;4424332;32;20125;-89
2023/07/01 11:16:08;;;;;;;5.82;4.20;;;;;;;36.10;61.10;98721.84;4423150;32;20159;-90
2023/07/01 11:18:47;;;;;;;6.18;4.07;;;;;;;36.08;61.10;98732.94;4422951;32;20078;-89
2023/07/01 11:21:13;;;;;;;4.50;4.10;;;;;;;35.99;61.10;98726.25;4423088;32;20132;-89
2023/07/01 11:23:42;;;;;;;5.18;4.68;;;;;;;35.93;61.09;98732.59;4423170;32;20097;-89
2023/07/01 11:26:08;;;;;;;5.80;4.50;;;;;;;36.06;61.10;98723.41;4422995;32;20794;-89
2023/07/01 11:28:34;;;;;;;5.62;5.07;;;;;;;36.17;61.10;98723.34;4410326;32;20490;-89
2023/07/01 11:31:11;;;;;;;5.22;4.72;;;;;;;36.38;61.12;98726.50;4422802;32;20169;-89
2023/07/01 11:33:36;;;;;;;7.18;4.37;;;;;;;36.36;61.11;98723.22;4410288;32;20129;-89
2023/07/01 11:36:02;;;;;;;7.07;4.65;;;;;;;36.45;61.13;98710.97;4409289;32;20384;-89
2023/07/01 11:38:27;;;;;;;7.12;5.40;;;;;;;36.28;61.11;98716.28;4424071;32;20124;-89
2023/07/01 11:40:53;;;;;;;6.05;4.18;;;;;;;36.29;61.12;98713.31;4422701;32;20413;-89
2023/07/01 11:43:21;;;;;;;4.40;3.87;;;;;;;36.35;61.11;98702.59;4410174;32;20105;-89
2023/07/01 11:45:47;;;;;;;4.50;3.80;;;;;;;36.34;61.11;98700.97;4397911;32;20136;-90
2023/07/01 11:48:13;;;;;;;3.78;3.42;;;;;;;36.62;61.13;98700.13;4410210;32;20120;-89
2023/07/01 11:50:51;;;;;;;4.18;3.62;;;;;;;36.81;61.14;98705.16;4422651;32;20129;-89
2023/07/01 11:53:16;;;;;;;4.37;3.97;;;;;;;37.01;61.14;98696.53;4422608;32;20516;-89
2023/07/01 11:55:42;;;;;;;3.97;2.92;;;;;;;37.09;61.14;98687.97;4422504;32;20188;-90